sensor_id;sensor_type;location;lat;lon;timestamp;P1;durP1;ratioP1;P2;durP2;ratioP2
9007;SDS011;62813;51.424;6.762;2023-11-21T00:01:23;9.03;;;5.37;;
9007;SDS011;62813;51.424;6.762;2023-11-21T00:03:50;15.97;;;6.33;;
9007;SDS011;62813;51.424;6.762;2023-11-21T00:06:17;11.17;;;5.30;;
9007;SDS011;62813;51.424;6.762;2023-11-21T00:08:44;9.93;;;5.50;;
9007;SDS011;62813;51.424;6.762;2023-11-21T00:11:11;11.97;;;5.97;;
9007;SDS011;62813;51.424;6.762;2023-11-21T00:13:38;12.03;;;6.07;;
9007;SDS011;62813;51.424;6.762;2023-11-21T00:16:05;12.90;;;6.47;;
9007;SDS011;62813;51.424;6.762;2023-11-21T00:18:34;10.53;;;7.00;;
9007;SDS011;62813;51.424;6.762;2023-11-21T00:21:00;9.60;;;6.57;;
9007;SDS011;62813;51.424;6.762;2023-11-21T00:23:27;13.57;;;7.10;;
9007;SDS011;62813;51.424;6.762;2023-11-21T00:25:56;14.63;;;7.83;;
9007;SDS011;62813;51.424;6.762;2023-11-21T00:28:23;12.63;;;7.30;;
9007;SDS011;62813;51.424;6.762;2023-11-21T00:30:50;14.33;;;7.70;;
9007;SDS011;62813;51.424;6.762;2023-11-21T00:33:16;15.80;;;8.03;;
9007;SDS011;62813;51.424;6.762;2023-11-21T00:35:43;11.30;;;7.53;;
9007;SDS011;62813;51.424;6.762;2023-11-21T00:38:10;11.43;;;6.57;;
9007;SDS011;62813;51.424;6.762;2023-11-21T00:40:37;17.00;;;8.10;;
9007;SDS011;62813;51.424;6.762;2023-11-21T00:43:04;14.73;;;7.90;;
9007;SDS011;62813;51.424;6.762;2023-11-21T00:45:32;10.60;;;7.30;;
9007;SDS011;62813;51.424;6.762;2023-11-21T00:47:58;13.63;;;6.90;;
9007;SDS011;62813;51.424;6.762;2023-11-21T00:50:25;13.33;;;7.30;;
9007;SDS011;62813;51.424;6.762;2023-11-21T00:52:52;12.20;;;6.50;;
9007;SDS011;62813;51.424;6.762;2023-11-21T00:55:19;9.67;;;6.57;;
9007;SDS011;62813;51.424;6.762;2023-11-21T00:57:46;10.30;;;6.30;;
9007;SDS011;62813;51.424;6.762;2023-11-21T01:00:12;12.87;;;6.70;;
9007;SDS011;62813;51.424;6.762;2023-11-21T01:02:44;14.07;;;6.83;;
9007;SDS011;62813;51.424;6.762;2023-11-21T01:05:11;9.10;;;6.00;;
9007;SDS011;62813;51.424;6.762;2023-11-21T01:07:38;9.27;;;5.33;;
9007;SDS011;62813;51.424;6.762;2023-11-21T01:10:05;10.97;;;6.40;;
9007;SDS011;62813;51.424;6.762;2023-11-21T01:12:34;10.83;;;6.23;;
9007;SDS011;62813;51.424;6.762;2023-11-21T01:15:03;10.70;;;6.40;;
9007;SDS011;62813;51.424;6.762;2023-11-21T01:17:33;8.67;;;6.33;;
9007;SDS011;62813;51.424;6.762;2023-11-21T01:20:03;9.90;;;5.57;;
9007;SDS011;62813;51.424;6.762;2023-11-21T01:22:39;7.60;;;5.97;;
9007;SDS011;62813;51.424;6.762;2023-11-21T01:25:06;11.17;;;5.97;;
9007;SDS011;62813;51.424;6.762;2023-11-21T01:27:34;8.77;;;5.57;;
9007;SDS011;62813;51.424;6.762;2023-11-21T01:30:01;9.87;;;5.77;;
9007;SDS011;62813;51.424;6.762;2023-11-21T01:32:29;9.60;;;5.27;;
9007;SDS011;62813;51.424;6.762;2023-11-21T01:34:56;10.77;;;5.30;;
9007;SDS011;62813;51.424;6.762;2023-11-21T01:37:23;8.97;;;5.30;;
9007;SDS011;62813;51.424;6.762;2023-11-21T01:39:49;10.77;;;5.50;;
9007;SDS011;62813;51.424;6.762;2023-11-21T01:42:16;9.00;;;5.50;;
9007;SDS011;62813;51.424;6.762;2023-11-21T01:44:44;9.77;;;5.37;;
9007;SDS011;62813;51.424;6.762;2023-11-21T01:47:13;11.30;;;5.80;;
9007;SDS011;62813;51.424;6.762;2023-11-21T01:49:40;12.23;;;6.00;;
9007;SDS011;62813;51.424;6.762;2023-11-21T01:52:07;9.77;;;5.27;;
9007;SDS011;62813;51.424;6.762;2023-11-21T01:54:33;12.17;;;5.03;;
9007;SDS011;62813;51.424;6.762;2023-11-21T01:57:00;8.13;;;5.33;;
9007;SDS011;62813;51.424;6.762;2023-11-21T01:59:36;7.60;;;5.13;;
9007;SDS011;62813;51.424;6.762;2023-11-21T02:02:07;11.80;;;5.17;;
9007;SDS011;62813;51.424;6.762;2023-11-21T02:04:34;8.63;;;4.83;;
9007;SDS011;62813;51.424;6.762;2023-11-21T02:07:03;6.97;;;5.37;;
9007;SDS011;62813;51.424;6.762;2023-11-21T02:09:33;8.57;;;4.70;;
9007;SDS011;62813;51.424;6.762;2023-11-21T02:12:00;8.40;;;5.13;;
9007;SDS011;62813;51.424;6.762;2023-11-21T02:14:29;10.07;;;4.87;;
9007;SDS011;62813;51.424;6.762;2023-11-21T02:16:57;11.77;;;5.07;;
9007;SDS011;62813;51.424;6.762;2023-11-21T02:19:24;7.77;;;5.03;;
9007;SDS011;62813;51.424;6.762;2023-11-21T02:21:52;8.97;;;4.57;;
9007;SDS011;62813;51.424;6.762;2023-11-21T02:24:19;9.17;;;4.90;;
9007;SDS011;62813;51.424;6.762;2023-11-21T02:26:49;8.90;;;4.63;;
9007;SDS011;62813;51.424;6.762;2023-11-21T02:29:20;7.60;;;5.20;;
9007;SDS011;62813;51.424;6.762;2023-11-21T02:31:54;10.90;;;5.23;;
9007;SDS011;62813;51.424;6.762;2023-11-21T02:34:22;8.63;;;4.93;;
9007;SDS011;62813;51.424;6.762;2023-11-21T02:36:51;11.23;;;5.10;;
9007;SDS011;62813;51.424;6.762;2023-11-21T02:39:18;8.57;;;4.83;;
9007;SDS011;62813;51.424;6.762;2023-11-21T02:41:48;7.57;;;4.97;;
9007;SDS011;62813;51.424;6.762;2023-11-21T02:44:15;10.90;;;5.00;;
9007;SDS011;62813;51.424;6.762;2023-11-21T02:46:42;8.67;;;5.30;;
9007;SDS011;62813;51.424;6.762;2023-11-21T02:49:09;10.17;;;5.07;;
9007;SDS011;62813;51.424;6.762;2023-11-21T02:51:39;8.17;;;5.20;;
9007;SDS011;62813;51.424;6.762;2023-11-21T02:54:06;9.20;;;4.60;;
9007;SDS011;62813;51.424;6.762;2023-11-21T02:56:34;8.70;;;5.63;;
9007;SDS011;62813;51.424;6.762;2023-11-21T02:59:01;8.70;;;5.73;;
9007;SDS011;62813;51.424;6.762;2023-11-21T03:01:28;8.73;;;5.63;;
9007;SDS011;62813;51.424;6.762;2023-11-21T03:03:55;10.17;;;5.60;;
9007;SDS011;62813;51.424;6.762;2023-11-21T03:06:23;9.53;;;6.60;;
9007;SDS011;62813;51.424;6.762;2023-11-21T03:08:50;8.73;;;6.20;;
9007;SDS011;62813;51.424;6.762;2023-11-21T03:11:17;12.60;;;6.57;;
9007;SDS011;62813;51.424;6.762;2023-11-21T03:13:44;11.00;;;6.63;;
9007;SDS011;62813;51.424;6.762;2023-11-21T03:16:11;9.43;;;6.57;;
9007;SDS011;62813;51.424;6.762;2023-11-21T03:18:39;11.43;;;6.80;;
9007;SDS011;62813;51.424;6.762;2023-11-21T03:21:07;8.70;;;6.57;;
9007;SDS011;62813;51.424;6.762;2023-11-21T03:23:35;11.30;;;6.90;;
9007;SDS011;62813;51.424;6.762;2023-11-21T03:26:03;10.60;;;6.70;;
9007;SDS011;62813;51.424;6.762;2023-11-21T03:28:30;11.93;;;7.30;;
9007;SDS011;62813;51.424;6.762;2023-11-21T03:30:57;12.73;;;8.27;;
9007;SDS011;62813;51.424;6.762;2023-11-21T03:33:24;14.20;;;8.07;;
9007;SDS011;62813;51.424;6.762;2023-11-21T03:35:51;11.30;;;7.80;;
9007;SDS011;62813;51.424;6.762;2023-11-21T03:38:19;16.07;;;9.17;;
9007;SDS011;62813;51.424;6.762;2023-11-21T03:40:46;16.37;;;9.00;;
9007;SDS011;62813;51.424;6.762;2023-11-21T03:43:14;12.77;;;9.00;;
9007;SDS011;62813;51.424;6.762;2023-11-21T03:45:41;14.73;;;10.00;;
9007;SDS011;62813;51.424;6.762;2023-11-21T03:48:08;15.07;;;9.93;;
9007;SDS011;62813;51.424;6.762;2023-11-21T03:50:35;14.23;;;10.17;;
9007;SDS011;62813;51.424;6.762;2023-11-21T03:53:02;15.37;;;10.33;;
9007;SDS011;62813;51.424;6.762;2023-11-21T03:55:28;16.43;;;11.07;;
9007;SDS011;62813;51.424;6.762;2023-11-21T03:57:57;16.70;;;10.63;;
9007;SDS011;62813;51.424;6.762;2023-11-21T04:00:25;15.03;;;10.70;;
9007;SDS011;62813;51.424;6.762;2023-11-21T04:02:55;14.97;;;10.07;;
9007;SDS011;62813;51.424;6.762;2023-11-21T04:05:22;16.77;;;10.53;;
9007;SDS011;62813;51.424;6.762;2023-11-21T04:07:50;15.77;;;11.20;;
9007;SDS011;62813;51.424;6.762;2023-11-21T04:10:20;16.40;;;10.70;;
9007;SDS011;62813;51.424;6.762;2023-11-21T04:12:46;17.07;;;10.53;;
9007;SDS011;62813;51.424;6.762;2023-11-21T04:15:14;15.03;;;10.13;;
9007;SDS011;62813;51.424;6.762;2023-11-21T04:17:41;15.83;;;9.93;;
9007;SDS011;62813;51.424;6.762;2023-11-21T04:20:09;13.87;;;9.27;;
9007;SDS011;62813;51.424;6.762;2023-11-21T04:22:37;17.23;;;9.53;;
9007;SDS011;62813;51.424;6.762;2023-11-21T04:25:08;12.10;;;9.23;;
9007;SDS011;62813;51.424;6.762;2023-11-21T04:27:36;13.50;;;8.87;;
9007;SDS011;62813;51.424;6.762;2023-11-21T04:30:04;12.70;;;8.33;;
9007;SDS011;62813;51.424;6.762;2023-11-21T04:32:31;13.60;;;8.90;;
9007;SDS011;62813;51.424;6.762;2023-11-21T04:34:58;15.60;;;8.47;;
9007;SDS011;62813;51.424;6.762;2023-11-21T04:37:25;12.13;;;8.80;;
9007;SDS011;62813;51.424;6.762;2023-11-21T04:39:52;11.43;;;8.30;;
9007;SDS011;62813;51.424;6.762;2023-11-21T04:42:18;13.37;;;8.00;;
9007;SDS011;62813;51.424;6.762;2023-11-21T04:44:45;12.93;;;8.27;;
9007;SDS011;62813;51.424;6.762;2023-11-21T04:47:12;15.67;;;8.50;;
9007;SDS011;62813;51.424;6.762;2023-11-21T04:49:41;12.83;;;8.47;;
9007;SDS011;62813;51.424;6.762;2023-11-21T04:52:10;12.43;;;8.60;;
9007;SDS011;62813;51.424;6.762;2023-11-21T04:54:37;13.83;;;9.13;;
9007;SDS011;62813;51.424;6.762;2023-11-21T04:57:03;16.17;;;9.50;;
9007;SDS011;62813;51.424;6.762;2023-11-21T04:59:31;12.70;;;9.10;;
9007;SDS011;62813;51.424;6.762;2023-11-21T05:01:58;13.97;;;9.23;;
9007;SDS011;62813;51.424;6.762;2023-11-21T05:04:26;15.47;;;10.23;;
9007;SDS011;62813;51.424;6.762;2023-11-21T05:06:53;15.73;;;9.67;;
9007;SDS011;62813;51.424;6.762;2023-11-21T05:09:20;17.77;;;11.17;;
9007;SDS011;62813;51.424;6.762;2023-11-21T05:11:48;18.83;;;11.53;;
9007;SDS011;62813;51.424;6.762;2023-11-21T05:14:15;14.00;;;10.87;;
9007;SDS011;62813;51.424;6.762;2023-11-21T05:16:42;17.30;;;10.43;;
9007;SDS011;62813;51.424;6.762;2023-11-21T05:19:09;15.97;;;11.07;;
9007;SDS011;62813;51.424;6.762;2023-11-21T05:21:35;17.97;;;11.40;;
9007;SDS011;62813;51.424;6.762;2023-11-21T05:24:02;20.03;;;11.13;;
9007;SDS011;62813;51.424;6.762;2023-11-21T05:26:29;19.37;;;13.00;;
9007;SDS011;62813;51.424;6.762;2023-11-21T05:28:56;16.70;;;11.67;;
9007;SDS011;62813;51.424;6.762;2023-11-21T05:31:23;21.87;;;12.90;;
9007;SDS011;62813;51.424;6.762;2023-11-21T05:33:49;22.13;;;13.53;;
9007;SDS011;62813;51.424;6.762;2023-11-21T05:36:16;23.37;;;13.57;;
9007;SDS011;62813;51.424;6.762;2023-11-21T05:38:43;22.77;;;13.93;;
9007;SDS011;62813;51.424;6.762;2023-11-21T05:41:10;24.20;;;15.03;;
9007;SDS011;62813;51.424;6.762;2023-11-21T05:43:40;22.27;;;15.00;;
9007;SDS011;62813;51.424;6.762;2023-11-21T05:46:07;23.63;;;15.67;;
9007;SDS011;62813;51.424;6.762;2023-11-21T05:48:35;26.53;;;16.53;;
9007;SDS011;62813;51.424;6.762;2023-11-21T05:51:06;25.30;;;16.07;;
9007;SDS011;62813;51.424;6.762;2023-11-21T05:53:33;25.43;;;15.60;;
9007;SDS011;62813;51.424;6.762;2023-11-21T05:56:03;26.83;;;17.17;;
9007;SDS011;62813;51.424;6.762;2023-11-21T05:58:30;26.70;;;17.67;;
9007;SDS011;62813;51.424;6.762;2023-11-21T06:00:57;26.83;;;17.63;;
9007;SDS011;62813;51.424;6.762;2023-11-21T06:03:24;27.13;;;17.27;;
9007;SDS011;62813;51.424;6.762;2023-11-21T06:05:51;28.73;;;17.07;;
9007;SDS011;62813;51.424;6.762;2023-11-21T06:08:18;27.43;;;17.43;;
9007;SDS011;62813;51.424;6.762;2023-11-21T06:10:45;27.87;;;19.57;;
9007;SDS011;62813;51.424;6.762;2023-11-21T06:13:15;25.37;;;18.73;;
9007;SDS011;62813;51.424;6.762;2023-11-21T06:15:42;29.80;;;19.43;;
9007;SDS011;62813;51.424;6.762;2023-11-21T06:18:09;31.00;;;19.80;;
9007;SDS011;62813;51.424;6.762;2023-11-21T06:20:40;32.53;;;19.77;;
9007;SDS011;62813;51.424;6.762;2023-11-21T06:23:07;28.50;;;18.80;;
9007;SDS011;62813;51.424;6.762;2023-11-21T06:25:35;31.30;;;19.70;;
9007;SDS011;62813;51.424;6.762;2023-11-21T06:28:03;33.87;;;19.80;;
9007;SDS011;62813;51.424;6.762;2023-11-21T06:30:30;27.80;;;18.03;;
9007;SDS011;62813;51.424;6.762;2023-11-21T06:32:57;29.03;;;19.60;;
9007;SDS011;62813;51.424;6.762;2023-11-21T06:35:24;32.77;;;20.13;;
9007;SDS011;62813;51.424;6.762;2023-11-21T06:37:51;37.00;;;21.17;;
9007;SDS011;62813;51.424;6.762;2023-11-21T06:40:18;36.53;;;21.50;;
9007;SDS011;62813;51.424;6.762;2023-11-21T06:42:47;37.87;;;22.87;;
9007;SDS011;62813;51.424;6.762;2023-11-21T06:45:14;38.43;;;21.40;;
9007;SDS011;62813;51.424;6.762;2023-11-21T06:47:42;40.63;;;26.57;;
9007;SDS011;62813;51.424;6.762;2023-11-21T06:50:09;46.67;;;29.27;;
9007;SDS011;62813;51.424;6.762;2023-11-21T06:52:36;43.57;;;30.03;;
9007;SDS011;62813;51.424;6.762;2023-11-21T06:55:03;44.73;;;28.13;;
9007;SDS011;62813;51.424;6.762;2023-11-21T06:57:31;43.33;;;27.40;;
9007;SDS011;62813;51.424;6.762;2023-11-21T06:59:58;58.23;;;35.27;;
9007;SDS011;62813;51.424;6.762;2023-11-21T07:02:25;65.03;;;42.30;;
9007;SDS011;62813;51.424;6.762;2023-11-21T07:04:53;65.00;;;39.73;;
9007;SDS011;62813;51.424;6.762;2023-11-21T07:07:20;48.00;;;30.07;;
9007;SDS011;62813;51.424;6.762;2023-11-21T07:09:50;33.17;;;20.50;;
9007;SDS011;62813;51.424;6.762;2023-11-21T07:12:20;32.53;;;20.87;;
9007;SDS011;62813;51.424;6.762;2023-11-21T07:14:50;31.73;;;19.97;;
9007;SDS011;62813;51.424;6.762;2023-11-21T07:17:16;33.67;;;20.87;;
9007;SDS011;62813;51.424;6.762;2023-11-21T07:19:43;33.30;;;21.17;;
9007;SDS011;62813;51.424;6.762;2023-11-21T07:22:10;34.87;;;21.27;;
9007;SDS011;62813;51.424;6.762;2023-11-21T07:24:37;36.50;;;21.50;;
9007;SDS011;62813;51.424;6.762;2023-11-21T07:27:03;52.83;;;33.13;;
9007;SDS011;62813;51.424;6.762;2023-11-21T07:29:30;61.50;;;41.23;;
9007;SDS011;62813;51.424;6.762;2023-11-21T07:31:57;42.27;;;26.10;;
9007;SDS011;62813;51.424;6.762;2023-11-21T07:34:24;38.53;;;23.40;;
9007;SDS011;62813;51.424;6.762;2023-11-21T07:36:51;39.20;;;22.73;;
9007;SDS011;62813;51.424;6.762;2023-11-21T07:39:18;40.50;;;21.80;;
9007;SDS011;62813;51.424;6.762;2023-11-21T07:41:45;33.60;;;20.17;;
9007;SDS011;62813;51.424;6.762;2023-11-21T07:44:18;42.80;;;23.20;;
9007;SDS011;62813;51.424;6.762;2023-11-21T07:46:46;37.70;;;21.50;;
9007;SDS011;62813;51.424;6.762;2023-11-21T07:49:14;32.97;;;20.90;;
9007;SDS011;62813;51.424;6.762;2023-11-21T07:51:47;33.37;;;20.80;;
9007;SDS011;62813;51.424;6.762;2023-11-21T07:54:13;34.20;;;20.80;;
9007;SDS011;62813;51.424;6.762;2023-11-21T07:56:40;31.17;;;19.87;;
9007;SDS011;62813;51.424;6.762;2023-11-21T07:59:07;35.67;;;20.93;;
9007;SDS011;62813;51.424;6.762;2023-11-21T08:01:34;38.47;;;21.40;;
9007;SDS011;62813;51.424;6.762;2023-11-21T08:04:01;36.17;;;21.90;;
9007;SDS011;62813;51.424;6.762;2023-11-21T08:06:31;35.57;;;21.27;;
9007;SDS011;62813;51.424;6.762;2023-11-21T08:08:58;35.80;;;21.67;;
9007;SDS011;62813;51.424;6.762;2023-11-21T08:11:25;40.13;;;23.10;;
9007;SDS011;62813;51.424;6.762;2023-11-21T08:13:55;37.90;;;20.77;;
9007;SDS011;62813;51.424;6.762;2023-11-21T08:16:23;37.77;;;22.70;;
9007;SDS011;62813;51.424;6.762;2023-11-21T08:18:52;38.50;;;24.77;;
9007;SDS011;62813;51.424;6.762;2023-11-21T08:21:19;94.00;;;56.63;;
9007;SDS011;62813;51.424;6.762;2023-11-21T08:23:45;61.63;;;38.57;;
9007;SDS011;62813;51.424;6.762;2023-11-21T08:26:15;45.47;;;24.23;;
9007;SDS011;62813;51.424;6.762;2023-11-21T08:28:42;48.73;;;31.37;;
9007;SDS011;62813;51.424;6.762;2023-11-21T08:31:09;42.77;;;27.27;;
9007;SDS011;62813;51.424;6.762;2023-11-21T08:33:38;42.37;;;25.47;;
9007;SDS011;62813;51.424;6.762;2023-11-21T08:36:09;68.63;;;39.50;;
9007;SDS011;62813;51.424;6.762;2023-11-21T08:38:37;44.60;;;30.73;;
9007;SDS011;62813;51.424;6.762;2023-11-21T08:41:05;31.87;;;21.13;;
9007;SDS011;62813;51.424;6.762;2023-11-21T08:43:34;30.33;;;18.70;;
9007;SDS011;62813;51.424;6.762;2023-11-21T08:46:02;27.40;;;17.43;;
9007;SDS011;62813;51.424;6.762;2023-11-21T08:48:29;26.20;;;16.60;;
9007;SDS011;62813;51.424;6.762;2023-11-21T08:50:56;28.70;;;17.40;;
9007;SDS011;62813;51.424;6.762;2023-11-21T08:53:23;24.80;;;15.90;;
9007;SDS011;62813;51.424;6.762;2023-11-21T08:55:49;26.03;;;17.77;;
9007;SDS011;62813;51.424;6.762;2023-11-21T08:58:17;64.30;;;44.07;;
9007;SDS011;62813;51.424;6.762;2023-11-21T09:00:43;50.13;;;30.10;;
9007;SDS011;62813;51.424;6.762;2023-11-21T09:03:12;34.37;;;21.37;;
9007;SDS011;62813;51.424;6.762;2023-11-21T09:05:39;33.20;;;19.67;;
9007;SDS011;62813;51.424;6.762;2023-11-21T09:08:06;28.80;;;18.70;;
9007;SDS011;62813;51.424;6.762;2023-11-21T09:10:34;29.37;;;17.60;;
9007;SDS011;62813;51.424;6.762;2023-11-21T09:13:03;40.10;;;26.07;;
9007;SDS011;62813;51.424;6.762;2023-11-21T09:15:32;53.03;;;34.27;;
9007;SDS011;62813;51.424;6.762;2023-11-21T09:17:59;69.23;;;43.30;;
9007;SDS011;62813;51.424;6.762;2023-11-21T09:20:27;36.53;;;23.57;;
9007;SDS011;62813;51.424;6.762;2023-11-21T09:22:55;34.17;;;20.80;;
9007;SDS011;62813;51.424;6.762;2023-11-21T09:25:22;28.73;;;17.90;;
9007;SDS011;62813;51.424;6.762;2023-11-21T09:27:49;29.33;;;17.87;;
9007;SDS011;62813;51.424;6.762;2023-11-21T09:30:16;29.77;;;18.37;;
9007;SDS011;62813;51.424;6.762;2023-11-21T09:32:43;32.60;;;19.27;;
9007;SDS011;62813;51.424;6.762;2023-11-21T09:35:12;29.57;;;17.70;;
9007;SDS011;62813;51.424;6.762;2023-11-21T09:37:41;28.93;;;18.23;;
9007;SDS011;62813;51.424;6.762;2023-11-21T09:40:09;28.50;;;17.17;;
9007;SDS011;62813;51.424;6.762;2023-11-21T09:42:40;30.37;;;18.27;;
9007;SDS011;62813;51.424;6.762;2023-11-21T09:45:15;30.23;;;19.63;;
9007;SDS011;62813;51.424;6.762;2023-11-21T09:48:00;32.10;;;18.90;;
9007;SDS011;62813;51.424;6.762;2023-11-21T09:50:28;38.90;;;23.93;;
9007;SDS011;62813;51.424;6.762;2023-11-21T09:52:57;34.37;;;21.43;;
9007;SDS011;62813;51.424;6.762;2023-11-21T09:55:31;43.23;;;26.13;;
9007;SDS011;62813;51.424;6.762;2023-11-21T09:58:02;43.07;;;25.80;;
9007;SDS011;62813;51.424;6.762;2023-11-21T10:00:32;42.60;;;25.27;;
9007;SDS011;62813;51.424;6.762;2023-11-21T10:02:59;43.43;;;26.23;;
9007;SDS011;62813;51.424;6.762;2023-11-21T10:05:26;40.10;;;24.07;;
9007;SDS011;62813;51.424;6.762;2023-11-21T10:07:55;40.07;;;23.20;;
9007;SDS011;62813;51.424;6.762;2023-11-21T10:10:23;42.00;;;24.30;;
9007;SDS011;62813;51.424;6.762;2023-11-21T10:12:54;38.33;;;24.57;;
9007;SDS011;62813;51.424;6.762;2023-11-21T10:15:23;50.73;;;26.60;;
9007;SDS011;62813;51.424;6.762;2023-11-21T10:17:53;44.10;;;28.10;;
9007;SDS011;62813;51.424;6.762;2023-11-21T10:20:22;47.03;;;28.10;;
9007;SDS011;62813;51.424;6.762;2023-11-21T10:22:50;52.70;;;29.97;;
9007;SDS011;62813;51.424;6.762;2023-11-21T10:25:17;51.43;;;28.73;;
9007;SDS011;62813;51.424;6.762;2023-11-21T10:27:47;59.03;;;29.90;;
9007;SDS011;62813;51.424;6.762;2023-11-21T10:30:18;71.60;;;35.77;;
9007;SDS011;62813;51.424;6.762;2023-11-21T10:32:45;66.70;;;33.23;;
9007;SDS011;62813;51.424;6.762;2023-11-21T10:35:13;67.13;;;36.63;;
9007;SDS011;62813;51.424;6.762;2023-11-21T10:37:40;64.77;;;34.90;;
9007;SDS011;62813;51.424;6.762;2023-11-21T10:40:07;69.07;;;35.60;;
9007;SDS011;62813;51.424;6.762;2023-11-21T10:42:39;61.93;;;34.37;;
9007;SDS011;62813;51.424;6.762;2023-11-21T10:45:07;70.80;;;34.80;;
9007;SDS011;62813;51.424;6.762;2023-11-21T10:47:43;75.87;;;36.73;;
9007;SDS011;62813;51.424;6.762;2023-11-21T10:50:11;80.70;;;41.23;;
9007;SDS011;62813;51.424;6.762;2023-11-21T10:52:41;74.60;;;40.20;;
9007;SDS011;62813;51.424;6.762;2023-11-21T10:55:16;74.47;;;38.50;;
9007;SDS011;62813;51.424;6.762;2023-11-21T10:57:46;74.73;;;39.00;;
9007;SDS011;62813;51.424;6.762;2023-11-21T11:00:15;84.47;;;42.83;;
9007;SDS011;62813;51.424;6.762;2023-11-21T11:02:45;82.77;;;43.93;;
9007;SDS011;62813;51.424;6.762;2023-11-21T11:05:15;80.30;;;40.30;;
9007;SDS011;62813;51.424;6.762;2023-11-21T11:08:04;69.80;;;38.57;;
9007;SDS011;62813;51.424;6.762;2023-11-21T11:10:32;70.83;;;35.40;;
9007;SDS011;62813;51.424;6.762;2023-11-21T11:12:59;69.10;;;38.23;;
9007;SDS011;62813;51.424;6.762;2023-11-21T11:15:26;67.07;;;38.43;;
9007;SDS011;62813;51.424;6.762;2023-11-21T11:17:54;64.27;;;35.60;;
9007;SDS011;62813;51.424;6.762;2023-11-21T11:20:30;83.13;;;43.43;;
9007;SDS011;62813;51.424;6.762;2023-11-21T11:31:21;65.73;;;36.07;;
9007;SDS011;62813;51.424;6.762;2023-11-21T11:34:48;74.90;;;38.60;;
9007;SDS011;62813;51.424;6.762;2023-11-21T11:37:00;65.20;;;35.97;;
9007;SDS011;62813;51.424;6.762;2023-11-21T11:39:35;66.33;;;37.53;;
9007;SDS011;62813;51.424;6.762;2023-11-21T11:42:05;73.63;;;38.87;;
9007;SDS011;62813;51.424;6.762;2023-11-21T11:47:14;76.43;;;39.10;;
9007;SDS011;62813;51.424;6.762;2023-11-21T11:55:17;70.00;;;38.70;;
9007;SDS011;62813;51.424;6.762;2023-11-21T11:57:46;68.87;;;37.83;;
9007;SDS011;62813;51.424;6.762;2023-11-21T12:00:15;61.50;;;36.40;;
9007;SDS011;62813;51.424;6.762;2023-11-21T12:02:48;55.43;;;33.53;;
9007;SDS011;62813;51.424;6.762;2023-11-21T12:05:18;63.03;;;35.20;;
9007;SDS011;62813;51.424;6.762;2023-11-21T12:07:47;55.27;;;34.27;;
9007;SDS011;62813;51.424;6.762;2023-11-21T12:10:17;55.37;;;34.17;;
9007;SDS011;62813;51.424;6.762;2023-11-21T12:12:45;47.80;;;30.27;;
9007;SDS011;62813;51.424;6.762;2023-11-21T12:15:16;55.07;;;34.13;;
9007;SDS011;62813;51.424;6.762;2023-11-21T12:17:43;49.83;;;32.10;;
9007;SDS011;62813;51.424;6.762;2023-11-21T12:20:13;60.80;;;33.40;;
9007;SDS011;62813;51.424;6.762;2023-11-21T12:22:42;65.53;;;35.17;;
9007;SDS011;62813;51.424;6.762;2023-11-21T12:25:20;54.30;;;33.57;;
9007;SDS011;62813;51.424;6.762;2023-11-21T12:27:49;61.30;;;35.97;;
9007;SDS011;62813;51.424;6.762;2023-11-21T12:30:18;55.57;;;35.00;;
9007;SDS011;62813;51.424;6.762;2023-11-21T12:32:48;57.23;;;34.63;;
9007;SDS011;62813;51.424;6.762;2023-11-21T12:35:17;58.73;;;36.00;;
9007;SDS011;62813;51.424;6.762;2023-11-21T12:37:45;58.80;;;35.67;;
9007;SDS011;62813;51.424;6.762;2023-11-21T12:40:14;68.57;;;38.23;;
9007;SDS011;62813;51.424;6.762;2023-11-21T12:42:42;65.00;;;35.73;;
9007;SDS011;62813;51.424;6.762;2023-11-21T12:47:43;66.00;;;37.43;;
9007;SDS011;62813;51.424;6.762;2023-11-21T12:50:11;59.90;;;34.43;;
9007;SDS011;62813;51.424;6.762;2023-11-21T12:52:44;60.30;;;33.93;;
9007;SDS011;62813;51.424;6.762;2023-11-21T12:55:17;68.33;;;36.30;;
9007;SDS011;62813;51.424;6.762;2023-11-21T12:57:45;62.70;;;34.50;;
9007;SDS011;62813;51.424;6.762;2023-11-21T13:00:17;61.83;;;34.27;;
9007;SDS011;62813;51.424;6.762;2023-11-21T13:02:54;42.70;;;25.17;;
9007;SDS011;62813;51.424;6.762;2023-11-21T13:05:29;39.20;;;24.90;;
9007;SDS011;62813;51.424;6.762;2023-11-21T13:08:08;26.10;;;15.43;;
9007;SDS011;62813;51.424;6.762;2023-11-21T13:10:40;26.77;;;16.37;;
9007;SDS011;62813;51.424;6.762;2023-11-21T13:13:10;22.73;;;16.37;;
9007;SDS011;62813;51.424;6.762;2023-11-21T13:15:53;30.50;;;16.03;;
9007;SDS011;62813;51.424;6.762;2023-11-21T13:18:24;19.20;;;13.57;;
9007;SDS011;62813;51.424;6.762;2023-11-21T13:20:54;20.50;;;13.77;;
9007;SDS011;62813;51.424;6.762;2023-11-21T13:23:22;26.20;;;16.47;;
9007;SDS011;62813;51.424;6.762;2023-11-21T13:25:50;26.07;;;15.93;;
9007;SDS011;62813;51.424;6.762;2023-11-21T13:28:27;21.90;;;15.33;;
9007;SDS011;62813;51.424;6.762;2023-11-21T13:30:59;11.43;;;8.13;;
9007;SDS011;62813;51.424;6.762;2023-11-21T13:33:37;13.03;;;7.90;;
9007;SDS011;62813;51.424;6.762;2023-11-21T13:36:05;11.83;;;8.23;;
9007;SDS011;62813;51.424;6.762;2023-11-21T13:38:37;9.47;;;7.40;;
9007;SDS011;62813;51.424;6.762;2023-11-21T13:41:09;12.83;;;7.80;;
9007;SDS011;62813;51.424;6.762;2023-11-21T13:43:39;10.57;;;7.80;;
9007;SDS011;62813;51.424;6.762;2023-11-21T13:46:07;13.37;;;8.47;;
9007;SDS011;62813;51.424;6.762;2023-11-21T13:48:43;10.27;;;7.60;;
9007;SDS011;62813;51.424;6.762;2023-11-21T13:51:17;11.77;;;8.60;;
9007;SDS011;62813;51.424;6.762;2023-11-21T13:53:45;12.40;;;9.03;;
9007;SDS011;62813;51.424;6.762;2023-11-21T13:56:15;13.17;;;9.23;;
9007;SDS011;62813;51.424;6.762;2023-11-21T13:58:46;11.90;;;9.23;;
9007;SDS011;62813;51.424;6.762;2023-11-21T14:01:20;13.13;;;8.80;;
9007;SDS011;62813;51.424;6.762;2023-11-21T14:04:03;12.27;;;9.70;;
9007;SDS011;62813;51.424;6.762;2023-11-21T14:06:43;11.90;;;8.97;;
9007;SDS011;62813;51.424;6.762;2023-11-21T14:09:17;12.87;;;9.90;;
9007;SDS011;62813;51.424;6.762;2023-11-21T14:11:53;13.67;;;9.87;;
9007;SDS011;62813;51.424;6.762;2023-11-21T14:14:23;14.50;;;10.60;;
9007;SDS011;62813;51.424;6.762;2023-11-21T14:16:57;13.63;;;9.90;;
9007;SDS011;62813;51.424;6.762;2023-11-21T14:19:25;15.27;;;10.30;;
9007;SDS011;62813;51.424;6.762;2023-11-21T14:22:00;15.33;;;10.57;;
9007;SDS011;62813;51.424;6.762;2023-11-21T14:24:27;16.43;;;10.70;;
9007;SDS011;62813;51.424;6.762;2023-11-21T14:26:55;16.20;;;11.37;;
9007;SDS011;62813;51.424;6.762;2023-11-21T14:29:23;16.63;;;10.70;;
9007;SDS011;62813;51.424;6.762;2023-11-21T14:31:50;18.30;;;11.53;;
9007;SDS011;62813;51.424;6.762;2023-11-21T14:34:18;14.77;;;11.07;;
9007;SDS011;62813;51.424;6.762;2023-11-21T14:36:48;16.47;;;10.87;;
9007;SDS011;62813;51.424;6.762;2023-11-21T14:39:16;17.03;;;11.10;;
9007;SDS011;62813;51.424;6.762;2023-11-21T14:42:09;16.57;;;11.57;;
9007;SDS011;62813;51.424;6.762;2023-11-21T14:44:35;14.60;;;10.57;;
9007;SDS011;62813;51.424;6.762;2023-11-21T14:47:08;16.13;;;11.60;;
9007;SDS011;62813;51.424;6.762;2023-11-21T14:49:42;15.87;;;11.20;;
9007;SDS011;62813;51.424;6.762;2023-11-21T14:52:19;15.50;;;11.10;;
9007;SDS011;62813;51.424;6.762;2023-11-21T14:55:01;13.27;;;10.53;;
9007;SDS011;62813;51.424;6.762;2023-11-21T14:57:52;13.93;;;10.73;;
9007;SDS011;62813;51.424;6.762;2023-11-21T15:00:20;13.87;;;10.23;;
9007;SDS011;62813;51.424;6.762;2023-11-21T15:03:03;13.40;;;10.20;;
9007;SDS011;62813;51.424;6.762;2023-11-21T15:05:30;14.23;;;10.37;;
9007;SDS011;62813;51.424;6.762;2023-11-21T15:07:57;14.50;;;11.03;;
9007;SDS011;62813;51.424;6.762;2023-11-21T15:10:37;17.10;;;12.20;;